createdAt,value
2022-08-08T00:02:03.324Z,2.55
2022-08-08T00:04:48.997Z,2.70
2022-08-08T00:07:34.477Z,3.30
2022-08-08T00:10:15.059Z,3.28
2022-08-08T00:12:56.637Z,2.80
2022-08-08T00:15:57.036Z,3.15
2022-08-08T00:18:42.878Z,3.25
2022-08-08T00:21:26.787Z,3.22
2022-08-08T00:24:01.698Z,3.10
2022-08-08T00:26:43.035Z,3.03
2022-08-08T00:29:44.279Z,3.00
2022-08-08T00:32:35.298Z,3.40
2022-08-08T00:35:29.977Z,3.08
2022-08-08T00:38:17.073Z,3.65
2022-08-08T00:41:54.975Z,3.42
2022-08-08T00:44:28.015Z,3.20
2022-08-08T00:49:42.956Z,3.28
2022-08-08T00:53:06.710Z,3.10
2022-08-08T00:56:02.136Z,4.45
2022-08-08T00:59:18.649Z,3.70
2022-08-08T01:04:02.127Z,3.55
2022-08-08T01:06:07.802Z,3.60
2022-08-08T01:09:36.845Z,3.20
2022-08-08T01:12:30.293Z,3.95
2022-08-08T01:15:37.254Z,3.35
2022-08-08T01:18:25.377Z,3.20
2022-08-08T01:22:03.861Z,3.50
2022-08-08T01:24:50.731Z,3.50
2022-08-08T01:28:05.646Z,3.63
2022-08-08T01:30:55.991Z,4.00
2022-08-08T01:33:54.159Z,3.92
2022-08-08T01:36:59.736Z,3.83
2022-08-08T01:39:57.188Z,3.50
2022-08-08T01:42:35.607Z,4.07
2022-08-08T01:45:58.083Z,3.95
2022-08-08T01:48:39.665Z,3.88
2022-08-08T01:52:43.639Z,4.32
2022-08-08T01:55:45.243Z,3.88
2022-08-08T01:58:04.561Z,4.03
2022-08-08T02:00:33.247Z,4.57
2022-08-08T02:03:55.311Z,4.43
2022-08-08T02:07:04.003Z,4.40
2022-08-08T02:10:04.442Z,4.05
2022-08-08T02:12:57.857Z,4.00
2022-08-08T02:15:38.988Z,4.55
2022-08-08T02:18:33.122Z,4.47
2022-08-08T02:21:28.653Z,4.22
2022-08-08T02:24:23.799Z,3.67
2022-08-08T02:27:07.614Z,4.10
2022-08-08T02:29:52.787Z,4.93
2022-08-08T02:32:36.449Z,5.00
2022-08-08T02:36:04.626Z,3.85
2022-08-08T02:38:44.860Z,4.05
2022-08-08T02:41:59.446Z,4.43
2022-08-08T02:44:56.699Z,4.90
2022-08-08T02:47:54.942Z,4.97
2022-08-08T02:51:11.844Z,4.47
2022-08-08T02:53:47.346Z,4.80
2022-08-08T02:56:40.687Z,4.32
2022-08-08T02:59:57.550Z,4.80
2022-08-08T03:02:55.180Z,4.32
2022-08-08T03:05:25.305Z,5.13
2022-08-08T03:08:34.113Z,4.72
2022-08-08T03:11:47.567Z,4.88
2022-08-08T03:15:56.876Z,5.10
2022-08-08T03:17:59.681Z,5.13
2022-08-08T03:20:52.547Z,5.22
2022-08-08T03:23:30.299Z,4.72
2022-08-08T03:26:08.850Z,4.55
2022-08-08T03:28:47.444Z,5.32
2022-08-08T03:32:07.105Z,5.28
2022-08-08T03:34:31.209Z,4.82
2022-08-08T03:37:00.277Z,4.85
2022-08-08T03:39:52.083Z,5.20
2022-08-08T03:42:38.578Z,4.45
2022-08-08T03:46:03.136Z,5.50
2022-08-08T03:48:20.764Z,4.68
2022-08-08T03:51:07.181Z,5.43
2022-08-08T03:53:42.570Z,5.05
2022-08-08T03:56:31.864Z,5.35
2022-08-08T03:59:04.042Z,4.88
2022-08-08T04:02:12.674Z,5.80
2022-08-08T04:04:37.104Z,5.60
2022-08-08T04:07:05.775Z,5.75
2022-08-08T04:09:58.718Z,5.10
2022-08-08T04:12:28.582Z,5.32
2022-08-08T04:14:57.813Z,5.40
2022-08-08T04:20:17.135Z,5.32
2022-08-08T04:22:51.665Z,4.93
2022-08-08T04:25:21.610Z,5.70
2022-08-08T04:28:34.456Z,5.45
2022-08-08T04:30:49.641Z,5.38
2022-08-08T04:33:18.080Z,5.53
2022-08-08T04:35:51.303Z,5.60
2022-08-08T04:38:22.273Z,5.40
2022-08-08T04:40:54.795Z,4.97
2022-08-08T04:43:31.768Z,4.90
2022-08-08T04:46:16.282Z,5.60
2022-08-08T04:48:47.504Z,5.00
2022-08-08T04:51:23.633Z,4.88
2022-08-08T04:54:39.351Z,5.22
2022-08-08T04:56:56.457Z,5.65
2022-08-08T04:59:30.030Z,5.18
2022-08-08T05:02:00.986Z,5.53
2022-08-08T05:04:29.975Z,5.37
2022-08-08T05:06:58.765Z,5.68
2022-08-08T05:09:27.188Z,5.18
2022-08-08T05:11:58.172Z,4.95
2022-08-08T05:14:31.710Z,5.55
2022-08-08T05:17:08.881Z,5.40
2022-08-08T05:20:09.244Z,5.65
2022-08-08T05:22:34.851Z,5.03
2022-08-08T05:25:05.448Z,5.70
2022-08-08T05:27:41.295Z,5.07
2022-08-08T05:30:13.289Z,4.90
2022-08-08T05:32:50.998Z,5.32
2022-08-08T05:35:23.845Z,4.90
2022-08-08T05:38:03.405Z,5.85
2022-08-08T05:40:57.602Z,5.22
2022-08-08T05:43:39.458Z,5.22
2022-08-08T05:46:21.737Z,4.80
2022-08-08T05:48:54.603Z,4.60
2022-08-08T05:51:28.054Z,4.78
2022-08-08T05:54:27.146Z,4.97
2022-08-08T05:57:15.377Z,4.40
2022-08-08T06:00:01.056Z,4.18
2022-08-08T06:03:06.432Z,3.60
2022-08-08T06:05:56.788Z,4.05
2022-08-08T06:08:36.467Z,4.13
2022-08-08T06:11:13.438Z,4.00
2022-08-08T06:13:51.055Z,3.90
2022-08-08T06:16:27.299Z,3.75
2022-08-08T06:19:17.173Z,4.10
2022-08-08T06:21:56.782Z,4.50
2022-08-08T06:24:40.362Z,3.72
2022-08-08T06:27:22.751Z,4.05
2022-08-08T06:30:19.943Z,4.15
2022-08-08T06:33:01.166Z,3.75
2022-08-08T06:36:06.924Z,3.55
2022-08-08T06:38:27.710Z,2.90
2022-08-08T06:41:05.979Z,3.20
2022-08-08T06:43:37.279Z,3.15
2022-08-08T06:46:16.244Z,3.13
2022-08-08T06:48:49.337Z,3.30
2022-08-08T06:51:22.287Z,3.15
2022-08-08T06:53:56.102Z,2.90
2022-08-08T06:56:34.567Z,3.00
2022-08-08T06:59:09.980Z,2.67
2022-08-08T07:02:16.818Z,2.90
2022-08-08T07:04:53.617Z,2.33
2022-08-08T07:07:52.680Z,2.35
2022-08-08T07:10:30.041Z,2.53
2022-08-08T07:13:08.228Z,2.75
2022-08-08T07:16:04.371Z,2.80
2022-08-08T07:18:40.970Z,3.28
2022-08-08T07:21:19.171Z,2.30
2022-08-08T07:24:03.390Z,2.53
2022-08-08T07:26:40.707Z,3.03
2022-08-08T07:29:54.646Z,2.67
2022-08-08T07:32:01.700Z,2.88
2022-08-08T07:34:33.690Z,2.80
2022-08-08T07:37:11.927Z,2.60
2022-08-08T07:39:45.709Z,2.67
2022-08-08T07:42:32.896Z,3.00
2022-08-08T07:45:04.818Z,2.10
2022-08-08T07:47:39.341Z,2.55
2022-08-08T07:50:11.169Z,2.72
2022-08-08T07:52:46.745Z,2.30
2022-08-08T07:55:28.446Z,2.03
2022-08-08T07:58:38.396Z,1.40
2022-08-08T08:01:14.252Z,1.80
2022-08-08T08:04:04.820Z,2.05
2022-08-08T08:06:38.617Z,2.50
2022-08-08T08:09:24.456Z,1.90
2022-08-08T08:11:56.410Z,1.52
2022-08-08T08:14:59.157Z,1.40
2022-08-08T08:17:47.597Z,1.48
2022-08-08T08:20:22.157Z,1.10
2022-08-08T08:23:00.565Z,1.20
2022-08-08T08:25:43.197Z,1.38
2022-08-08T08:28:23.963Z,1.40
2022-08-08T08:30:58.633Z,1.48
2022-08-08T08:33:28.602Z,1.17
2022-08-08T08:36:18.986Z,0.98
2022-08-08T08:38:49.552Z,1.73
2022-08-08T08:41:22.405Z,1.80
2022-08-08T08:44:14.352Z,1.77
2022-08-08T08:46:47.343Z,1.30
2022-08-08T08:49:20.285Z,1.10
2022-08-08T08:51:59.160Z,1.40
2022-08-08T08:54:34.537Z,1.63
2022-08-08T08:57:17.417Z,5.78
2022-08-08T09:00:01.692Z,1.80
2022-08-08T09:02:41.754Z,1.35
2022-08-08T09:05:28.796Z,1.10
2022-08-08T09:08:12.647Z,1.20
2022-08-08T09:10:48.129Z,1.10
2022-08-08T09:13:27.809Z,0.95
2022-08-08T09:16:03.876Z,1.00
2022-08-08T09:18:35.882Z,1.00
2022-08-08T09:22:01.795Z,1.00
2022-08-08T09:23:55.501Z,1.83
2022-08-08T09:26:57.484Z,0.90
2022-08-08T09:32:05.647Z,0.90
2022-08-08T09:34:50.559Z,1.17
2022-08-08T09:38:01.892Z,1.00
2022-08-08T09:40:24.042Z,1.35
2022-08-08T09:43:16.895Z,1.40
2022-08-08T09:46:04.140Z,0.90
2022-08-08T09:48:39.026Z,1.30
2022-08-08T09:51:15.178Z,1.20
2022-08-08T09:53:59.355Z,0.90
2022-08-08T09:56:40.839Z,1.40
2022-08-08T09:59:40.466Z,0.75
2022-08-08T10:02:12.907Z,1.60
2022-08-08T10:04:48.002Z,1.20
2022-08-08T10:07:19.832Z,1.08
2022-08-08T10:10:00.322Z,1.60
2022-08-08T10:12:38.721Z,1.10
2022-08-08T10:15:25.194Z,1.00
2022-08-08T10:18:07.458Z,1.02
2022-08-08T10:20:51.289Z,0.80
2022-08-08T10:23:49.612Z,1.17
2022-08-08T10:26:57.555Z,0.88
2022-08-08T10:29:58.230Z,1.10
2022-08-08T10:32:34.458Z,1.17
2022-08-08T10:35:20.475Z,1.10
2022-08-08T10:38:08.294Z,0.90
2022-08-08T10:40:38.816Z,1.10
2022-08-08T10:43:09.995Z,0.98
2022-08-08T10:45:55.199Z,1.13
2022-08-08T10:48:58.842Z,1.35
2022-08-08T10:51:31.242Z,1.00
2022-08-08T10:54:10.481Z,1.17
2022-08-08T10:56:43.212Z,0.90
2022-08-08T10:59:14.244Z,1.25
2022-08-08T11:01:49.340Z,1.30
2022-08-08T11:04:38.727Z,1.20
2022-08-08T11:07:08.967Z,1.05
2022-08-08T11:09:46.865Z,1.20
2022-08-08T11:12:16.239Z,1.30
2022-08-08T11:14:54.366Z,1.10
2022-08-08T11:18:00.719Z,1.20
2022-08-08T11:20:27.365Z,0.95
2022-08-08T11:23:05.351Z,0.90
2022-08-08T11:25:52.843Z,0.80
2022-08-08T11:28:29.564Z,1.05
2022-08-08T11:31:03.677Z,1.05
2022-08-08T11:33:51.546Z,1.40
2022-08-08T11:36:21.956Z,1.38
2022-08-08T11:38:54.276Z,1.00
2022-08-08T11:41:27.908Z,1.20
2022-08-08T11:44:01.641Z,1.30
2022-08-08T11:46:32.735Z,1.47
2022-08-08T11:49:09.393Z,1.23
2022-08-08T11:51:49.938Z,1.00
2022-08-08T11:54:44.621Z,0.90
2022-08-08T11:57:17.758Z,0.95
2022-08-08T12:00:02.209Z,1.02
2022-08-08T12:02:55.588Z,1.00
2022-08-08T12:05:38.730Z,0.95
2022-08-08T12:08:09.560Z,0.95
2022-08-08T12:10:52.402Z,1.85
2022-08-08T12:13:37.909Z,1.30
2022-08-08T12:16:20.764Z,1.02
2022-08-08T12:19:02.224Z,1.00
2022-08-08T12:22:00.422Z,1.05
2022-08-08T12:24:28.100Z,0.88
2022-08-08T12:26:58.350Z,1.13
2022-08-08T12:29:40.908Z,1.27
2022-08-08T12:32:19.510Z,1.30
2022-08-08T12:34:55.284Z,1.55
2022-08-08T12:37:40.062Z,1.05
2022-08-08T12:40:54.424Z,1.15
2022-08-08T12:43:32.977Z,0.90
2022-08-08T12:46:19.254Z,1.45
2022-08-08T12:49:22.288Z,1.00
2022-08-08T12:51:59.190Z,1.38
2022-08-08T12:54:36.562Z,0.95
2022-08-08T12:57:16.912Z,0.90
2022-08-08T13:00:05.264Z,0.90
2022-08-08T13:02:51.707Z,1.17
2022-08-08T13:05:26.617Z,1.10
2022-08-08T13:08:17.841Z,1.15
2022-08-08T13:10:56.291Z,0.90
2022-08-08T13:13:37.398Z,0.90
2022-08-08T13:16:19.507Z,1.10
2022-08-08T13:18:58.236Z,1.20
2022-08-08T13:21:49.214Z,0.98
2022-08-08T13:24:38.620Z,1.03
2022-08-08T13:27:11.734Z,0.80
2022-08-08T13:29:57.916Z,1.00
2022-08-08T13:32:30.309Z,0.77
2022-08-08T13:35:01.382Z,1.52
2022-08-08T13:38:05.602Z,1.00
2022-08-08T13:40:27.482Z,1.00
2022-08-08T13:42:57.724Z,0.90
2022-08-08T13:45:27.146Z,1.52
2022-08-08T13:48:00.664Z,1.00
2022-08-08T13:50:49.372Z,1.02
2022-08-08T13:53:34.211Z,1.17
2022-08-08T13:56:11.820Z,1.02
2022-08-08T13:58:56.498Z,1.00
2022-08-08T14:01:32.918Z,1.08
2022-08-08T14:04:23.102Z,0.95
2022-08-08T14:07:04.688Z,0.70
2022-08-08T14:10:02.342Z,1.00
2022-08-08T14:12:29.098Z,1.10
2022-08-08T14:14:59.014Z,0.90
2022-08-08T14:17:57.226Z,1.00
2022-08-08T14:20:56.079Z,1.55
2022-08-08T14:23:21.153Z,0.90
2022-08-08T14:26:10.326Z,0.90
2022-08-08T14:28:51.347Z,1.05
2022-08-08T14:31:20.238Z,0.80
2022-08-08T14:33:54.817Z,1.00
2022-08-08T14:36:40.577Z,0.98
2022-08-08T14:39:11.631Z,0.90
2022-08-08T14:41:54.737Z,1.58
2022-08-08T14:44:33.458Z,1.30
2022-08-08T14:50:06.413Z,1.38
2022-08-08T14:53:04.293Z,0.90
2022-08-08T14:55:41.289Z,0.98
2022-08-08T14:58:16.914Z,1.88
2022-08-08T15:00:49.489Z,0.90
2022-08-08T15:03:18.714Z,0.90
2022-08-08T15:05:52.404Z,0.90
2022-08-08T15:08:35.592Z,0.88
2022-08-08T15:11:11.483Z,0.90
2022-08-08T15:14:01.797Z,0.75
2022-08-08T15:16:34.586Z,0.85
2022-08-08T15:19:04.701Z,1.00
2022-08-08T15:21:33.414Z,1.10
2022-08-08T15:24:06.394Z,0.93
2022-08-08T15:26:41.736Z,1.08
2022-08-08T15:29:10.167Z,1.65
2022-08-08T15:32:03.739Z,1.08
2022-08-08T15:34:29.332Z,0.98
2022-08-08T15:37:03.080Z,0.95
2022-08-08T15:39:37.962Z,1.13
2022-08-08T15:42:10.159Z,1.08
2022-08-08T15:44:39.603Z,1.35
2022-08-08T15:47:16.004Z,1.10
2022-08-08T15:49:50.153Z,1.10
2022-08-08T15:52:22.635Z,1.15
2022-08-08T15:54:53.592Z,1.00
2022-08-08T15:57:23.374Z,1.10
2022-08-08T16:00:25.307Z,1.08
2022-08-08T16:02:50.281Z,1.00
2022-08-08T16:05:36.039Z,0.80
2022-08-08T16:08:19.960Z,0.93
2022-08-08T16:13:09.543Z,0.80
2022-08-08T16:13:45.093Z,1.10
2022-08-08T16:16:18.042Z,1.35
2022-08-08T16:18:53.379Z,1.00
2022-08-08T16:21:29.295Z,1.10
2022-08-08T16:24:00.514Z,0.80
2022-08-08T16:26:32.999Z,1.15
2022-08-08T16:29:07.781Z,1.10
2022-08-08T16:31:41.984Z,1.33
2022-08-08T16:34:19.820Z,1.00
2022-08-08T16:36:50.781Z,1.10
2022-08-08T16:40:00.792Z,1.13
2022-08-08T16:42:17.871Z,1.27
2022-08-08T16:44:54.571Z,1.20
2022-08-08T16:47:40.189Z,0.93
2022-08-08T16:50:20.252Z,1.02
2022-08-08T16:55:18.198Z,1.10
2022-08-08T16:55:53.101Z,1.30
2022-08-08T16:58:25.561Z,1.10
2022-08-08T17:00:58.152Z,1.40
2022-08-08T17:03:58.358Z,1.00
2022-08-08T17:06:36.870Z,1.30
2022-08-08T17:09:06.254Z,1.50
2022-08-08T17:11:39.169Z,1.23
2022-08-08T17:14:19.328Z,0.80
2022-08-08T17:16:51.888Z,1.10
2022-08-08T17:19:28.760Z,1.13
2022-08-08T17:22:01.084Z,1.10
2022-08-08T17:24:31.677Z,1.00
2022-08-08T17:27:02.967Z,1.10
2022-08-08T17:29:36.174Z,1.10
2022-08-08T17:32:07.760Z,1.45
2022-08-08T17:34:54.275Z,1.25
2022-08-08T17:37:27.559Z,1.00
2022-08-08T17:40:05.990Z,1.05
2022-08-08T17:42:47.245Z,1.30
2022-08-08T17:45:23.624Z,1.30
2022-08-08T17:47:54.591Z,1.10
2022-08-08T17:50:24.783Z,1.45
2022-08-08T17:52:53.948Z,1.40
2022-08-08T17:56:05.367Z,1.00
2022-08-08T17:58:14.917Z,0.95
2022-08-08T18:00:43.269Z,1.00
2022-08-08T18:03:16.233Z,1.10
2022-08-08T18:05:51.132Z,1.10
2022-08-08T18:08:24.838Z,0.90
2022-08-08T18:11:14.892Z,1.08
2022-08-08T18:13:45.612Z,1.10
2022-08-08T18:16:20.795Z,0.88
2022-08-08T18:18:57.909Z,0.80
2022-08-08T18:21:59.565Z,1.50
2022-08-08T18:26:56.734Z,1.00
2022-08-08T18:29:27.236Z,1.00
2022-08-08T18:32:07.890Z,0.98
2022-08-08T18:34:39.500Z,1.05
2022-08-08T18:37:10.177Z,0.80
2022-08-08T18:39:46.503Z,1.15
2022-08-08T18:42:16.691Z,1.00
2022-08-08T18:44:55.916Z,1.23
2022-08-08T18:47:27.091Z,1.40
2022-08-08T18:50:00.331Z,1.13
2022-08-08T18:52:36.935Z,0.93
2022-08-08T18:55:09.613Z,1.90
2022-08-08T18:57:44.535Z,1.05
2022-08-08T19:00:20.503Z,1.35
2022-08-08T19:02:55.687Z,1.27
2022-08-08T19:05:38.525Z,1.50
2022-08-08T19:08:25.474Z,2.05
2022-08-08T19:10:59.520Z,1.30
2022-08-08T19:13:38.559Z,1.50
2022-08-08T19:16:19.085Z,1.30
2022-08-08T19:18:56.105Z,1.13
2022-08-08T19:24:41.742Z,1.58
2022-08-08T19:27:05.777Z,1.38
2022-08-08T19:29:40.777Z,1.40
2022-08-08T19:32:13.093Z,1.13
2022-08-08T19:34:49.396Z,1.40
2022-08-08T19:37:43.287Z,1.73
2022-08-08T19:40:14.458Z,1.52
2022-08-08T19:42:45.589Z,1.70
2022-08-08T19:45:14.624Z,1.92
2022-08-08T19:48:03.577Z,1.38
2022-08-08T19:50:33.208Z,1.90
2022-08-08T19:53:01.746Z,1.77
2022-08-08T19:55:33.781Z,1.40
2022-08-08T19:58:04.081Z,1.48
2022-08-08T20:00:37.246Z,2.00
2022-08-08T20:03:15.134Z,1.48
2022-08-08T20:06:14.185Z,1.42
2022-08-08T20:08:48.136Z,1.50
2022-08-08T20:11:16.852Z,1.75
2022-08-08T20:14:32.241Z,1.60
2022-08-08T20:16:38.946Z,1.80
2022-08-08T20:19:09.660Z,1.40
2022-08-08T20:21:39.209Z,1.65
2022-08-08T20:24:08.755Z,1.50
2022-08-08T20:26:47.023Z,1.52
2022-08-08T20:29:16.087Z,1.60
2022-08-08T20:32:02.703Z,1.65
2022-08-08T20:34:33.503Z,1.50
2022-08-08T20:37:06.269Z,1.90
2022-08-08T20:39:41.311Z,1.60
2022-08-08T20:42:28.188Z,1.50
2022-08-08T20:44:58.749Z,1.50
2022-08-08T20:47:28.743Z,1.75
2022-08-08T20:50:05.821Z,1.70
2022-08-08T20:52:34.296Z,1.40
2022-08-08T20:55:07.613Z,1.60
2022-08-08T20:57:51.433Z,1.63
2022-08-08T21:00:23.519Z,1.70
2022-08-08T21:02:52.720Z,1.92
2022-08-08T21:05:21.648Z,1.75
2022-08-08T21:08:36.653Z,1.50
2022-08-08T21:10:41.468Z,1.80
2022-08-08T21:13:11.020Z,1.48
2022-08-08T21:16:05.810Z,1.65
2022-08-08T21:18:28.182Z,1.55
2022-08-08T21:20:58.425Z,1.50
2022-08-08T21:24:02.418Z,2.35
2022-08-08T21:26:26.864Z,1.70
2022-08-08T21:29:02.205Z,1.73
2022-08-08T21:31:53.329Z,1.60
2022-08-08T21:34:19.876Z,1.65
2022-08-08T21:36:52.586Z,1.52
2022-08-08T21:39:24.026Z,1.92
2022-08-08T21:42:10.254Z,1.33
2022-08-08T21:44:59.036Z,2.05
2022-08-08T21:48:12.964Z,1.80
2022-08-08T21:50:17.043Z,1.73
2022-08-08T21:54:36.224Z,1.63
2022-08-08T21:56:26.071Z,1.70
2022-08-08T21:58:24.732Z,1.67
2022-08-08T22:01:04.081Z,1.50
2022-08-08T22:03:34.221Z,1.65
2022-08-08T22:06:02.777Z,1.90
2022-08-08T22:08:37.178Z,1.90
2022-08-08T22:11:52.938Z,1.95
2022-08-08T22:13:58.898Z,1.98
2022-08-08T22:16:28.607Z,1.73
2022-08-08T22:18:56.899Z,2.13
2022-08-08T22:21:26.128Z,1.90
2022-08-08T22:24:03.127Z,1.88
2022-08-08T22:26:32.979Z,1.70
2022-08-08T22:29:13.484Z,1.60
2022-08-08T22:31:58.256Z,2.15
2022-08-08T22:34:39.292Z,2.00
2022-08-08T22:37:27.870Z,1.80
2022-08-08T22:40:00.548Z,2.13
2022-08-08T22:42:31.899Z,1.88
2022-08-08T22:45:12.134Z,1.73
2022-08-08T22:47:49.493Z,1.52
2022-08-08T22:50:25.415Z,1.98
2022-08-08T22:54:28.117Z,2.22
2022-08-08T22:55:58.168Z,1.95
2022-08-08T22:58:31.244Z,1.70
2022-08-08T23:02:00.298Z,1.73
2022-08-08T23:03:53.362Z,2.03
2022-08-08T23:06:24.098Z,1.90
2022-08-08T23:08:55.593Z,1.85
2022-08-08T23:12:17.348Z,2.28
2022-08-08T23:14:19.289Z,1.98
2022-08-08T23:16:57.784Z,1.70
2022-08-08T23:19:30.848Z,1.65
2022-08-08T23:22:04.494Z,1.80
2022-08-08T23:24:41.515Z,1.80
2022-08-08T23:27:37.575Z,1.80
2022-08-08T23:30:03.385Z,1.73
2022-08-08T23:32:34.365Z,1.90
2022-08-08T23:35:08.199Z,2.03
2022-08-08T23:38:02.737Z,2.17
2022-08-08T23:40:30.174Z,2.00
2022-08-08T23:42:58.920Z,2.20
2022-08-08T23:48:59.646Z,2.30
2022-08-08T23:49:03.019Z,2.20
2022-08-08T23:51:12.765Z,2.30
2022-08-08T23:54:39.522Z,1.95
2022-08-08T23:56:49.503Z,2.53
2022-08-08T23:59:19.896Z,2.17
